KLHB/LHB METAR and TAF weather

Enter ICAO airport designator
Station Type Date Time Source
KLHB METAR 2019/10/21 02:55 UTC NOAA

KLHB 210255Z AUTO 15011G17KT 10SM SCT024 27/23 A2971 RMK AO2 T02720230


Station Type Date Time Source
KLHB Decoded METAR 2019/10/21 02:55 UTC NOAA

Hearne, Hearne Municipal Airport, TX, United States (KLHB) 30-52-18N 096-37-20W
Oct 20, 2019 - 10:55 PM EDT / 2019.10.21 0255 UTC
Wind: from the SSE (150 degrees) at 13 MPH (11 KT) gusting to 20 MPH (17 KT):0
Visibility: 10 mile(s):0
Sky conditions: partly cloudy
Temperature: 81.0 F (27.2 C)
Dew Point: 73.4 F (23.0 C)
Relative Humidity: 77%
Pressure (altimeter): 29.71 in. Hg (1006 hPa)
ob: KLHB 210255Z AUTO 15011G17KT 10SM SCT024 27/23 A2971 RMK AO2 T02720230
cycle: 3

Station Type Date Time Source
KLHB TAF UTC NOAA

Error!

Example: see airport list